sensor_id;sensor_type;location;lat;lon;timestamp;P1;durP1;ratioP1;P2;durP2;ratioP2
67051;SDS011;53957;47.222;18.670;2022-12-29T00:00:52;9.20;;;7.12;;
67051;SDS011;53957;47.222;18.670;2022-12-29T00:03:56;10.40;;;6.65;;
67051;SDS011;53957;47.222;18.670;2022-12-29T00:07:04;11.70;;;8.07;;
67051;SDS011;53957;47.222;18.670;2022-12-29T00:10:18;11.25;;;7.57;;
67051;SDS011;53957;47.222;18.670;2022-12-29T00:13:22;14.35;;;7.18;;
67051;SDS011;53957;47.222;18.670;2022-12-29T00:16:44;11.05;;;8.02;;
67051;SDS011;53957;47.222;18.670;2022-12-29T00:20:07;14.13;;;7.55;;
67051;SDS011;53957;47.222;18.670;2022-12-29T00:23:29;18.92;;;8.32;;
67051;SDS011;53957;47.222;18.670;2022-12-29T00:26:56;19.87;;;8.18;;
67051;SDS011;53957;47.222;18.670;2022-12-29T00:30:27;10.20;;;7.20;;
67051;SDS011;53957;47.222;18.670;2022-12-29T06:47:23;21.85;;;9.85;;
67051;SDS011;53957;47.222;18.670;2022-12-29T06:50:35;14.02;;;9.23;;
67051;SDS011;53957;47.222;18.670;2022-12-29T06:53:38;21.12;;;11.48;;
67051;SDS011;53957;47.222;18.670;2022-12-29T06:56:43;19.75;;;11.52;;
67051;SDS011;53957;47.222;18.670;2022-12-29T06:59:50;18.98;;;10.98;;
67051;SDS011;53957;47.222;18.670;2022-12-29T07:02:58;18.70;;;11.60;;
67051;SDS011;53957;47.222;18.670;2022-12-29T07:06:03;18.62;;;12.32;;
67051;SDS011;53957;47.222;18.670;2022-12-29T07:09:07;16.05;;;11.45;;
67051;SDS011;53957;47.222;18.670;2022-12-29T07:12:11;18.62;;;13.10;;
67051;SDS011;53957;47.222;18.670;2022-12-29T07:15:16;20.62;;;11.85;;
67051;SDS011;53957;47.222;18.670;2022-12-29T07:18:24;14.98;;;11.48;;
67051;SDS011;53957;47.222;18.670;2022-12-29T07:21:27;14.80;;;10.90;;
67051;SDS011;53957;47.222;18.670;2022-12-29T07:24:31;19.65;;;11.73;;
67051;SDS011;53957;47.222;18.670;2022-12-29T07:27:38;21.25;;;12.85;;
67051;SDS011;53957;47.222;18.670;2022-12-29T07:31:00;19.83;;;10.55;;
67051;SDS011;53957;47.222;18.670;2022-12-29T07:34:04;13.62;;;11.25;;
67051;SDS011;53957;47.222;18.670;2022-12-29T07:37:15;10.60;;;8.93;;
67051;SDS011;53957;47.222;18.670;2022-12-29T07:40:20;22.70;;;11.63;;
67051;SDS011;53957;47.222;18.670;2022-12-29T07:43:23;19.58;;;10.95;;
67051;SDS011;53957;47.222;18.670;2022-12-29T07:46:27;11.02;;;8.02;;
67051;SDS011;53957;47.222;18.670;2022-12-29T07:49:50;14.77;;;10.77;;
67051;SDS011;53957;47.222;18.670;2022-12-29T07:53:02;9.27;;;8.18;;
67051;SDS011;53957;47.222;18.670;2022-12-29T07:56:05;13.07;;;10.25;;
67051;SDS011;53957;47.222;18.670;2022-12-29T07:59:17;15.57;;;11.07;;
67051;SDS011;53957;47.222;18.670;2022-12-29T08:02:25;18.10;;;11.48;;
67051;SDS011;53957;47.222;18.670;2022-12-29T08:05:30;17.75;;;11.55;;
67051;SDS011;53957;47.222;18.670;2022-12-29T08:08:45;15.20;;;11.35;;
67051;SDS011;53957;47.222;18.670;2022-12-29T08:11:48;17.35;;;9.88;;
67051;SDS011;53957;47.222;18.670;2022-12-29T08:14:51;21.48;;;12.52;;
67051;SDS011;53957;47.222;18.670;2022-12-29T08:17:54;14.87;;;10.27;;
67051;SDS011;53957;47.222;18.670;2022-12-29T08:21:18;15.45;;;10.18;;
67051;SDS011;53957;47.222;18.670;2022-12-29T08:24:22;18.42;;;10.35;;
67051;SDS011;53957;47.222;18.670;2022-12-29T08:27:25;9.75;;;7.95;;
67051;SDS011;53957;47.222;18.670;2022-12-29T08:30:29;7.70;;;6.93;;
67051;SDS011;53957;47.222;18.670;2022-12-29T08:33:32;23.33;;;14.55;;
67051;SDS011;53957;47.222;18.670;2022-12-29T08:36:36;12.40;;;9.68;;
67051;SDS011;53957;47.222;18.670;2022-12-29T08:39:46;8.50;;;6.43;;
67051;SDS011;53957;47.222;18.670;2022-12-29T08:42:52;11.45;;;9.05;;
67051;SDS011;53957;47.222;18.670;2022-12-29T08:46:15;15.88;;;10.95;;
67051;SDS011;53957;47.222;18.670;2022-12-29T08:49:19;22.55;;;11.82;;
67051;SDS011;53957;47.222;18.670;2022-12-29T08:52:24;14.45;;;11.98;;
67051;SDS011;53957;47.222;18.670;2022-12-29T08:55:36;30.60;;;14.07;;
67051;SDS011;53957;47.222;18.670;2022-12-29T08:58:38;17.37;;;11.88;;
67051;SDS011;53957;47.222;18.670;2022-12-29T09:01:42;16.40;;;10.25;;
67051;SDS011;53957;47.222;18.670;2022-12-29T09:04:45;17.10;;;12.75;;
67051;SDS011;53957;47.222;18.670;2022-12-29T09:08:00;12.25;;;8.68;;
67051;SDS011;53957;47.222;18.670;2022-12-29T09:17:54;6.72;;;6.12;;
67051;SDS011;53957;47.222;18.670;2022-12-29T09:21:02;12.80;;;11.15;;
67051;SDS011;53957;47.222;18.670;2022-12-29T09:24:07;12.30;;;10.52;;
67051;SDS011;53957;47.222;18.670;2022-12-29T09:27:15;17.73;;;12.23;;
67051;SDS011;53957;47.222;18.670;2022-12-29T09:30:38;18.45;;;12.90;;
67051;SDS011;53957;47.222;18.670;2022-12-29T09:33:42;19.23;;;13.25;;
67051;SDS011;53957;47.222;18.670;2022-12-29T09:36:45;20.27;;;12.93;;
67051;SDS011;53957;47.222;18.670;2022-12-29T09:39:56;12.80;;;10.25;;
67051;SDS011;53957;47.222;18.670;2022-12-29T09:47:00;22.40;;;9.98;;
67051;SDS011;53957;47.222;18.670;2022-12-29T09:57:18;10.95;;;8.68;;
67051;SDS011;53957;47.222;18.670;2022-12-29T10:04:04;9.35;;;7.82;;
67051;SDS011;53957;47.222;18.670;2022-12-29T10:07:30;13.98;;;10.93;;
67051;SDS011;53957;47.222;18.670;2022-12-29T10:10:40;13.52;;;8.52;;
67051;SDS011;53957;47.222;18.670;2022-12-29T10:23:57;11.48;;;8.20;;
67051;SDS011;53957;47.222;18.670;2022-12-29T10:27:05;19.55;;;10.75;;
67051;SDS011;53957;47.222;18.670;2022-12-29T10:33:33;13.52;;;8.95;;
67051;SDS011;53957;47.222;18.670;2022-12-29T10:36:44;16.00;;;10.82;;
67051;SDS011;53957;47.222;18.670;2022-12-29T10:39:51;16.98;;;10.98;;
67051;SDS011;53957;47.222;18.670;2022-12-29T10:46:51;18.50;;;11.90;;
67051;SDS011;53957;47.222;18.670;2022-12-29T10:50:23;12.45;;;10.50;;
67051;SDS011;53957;47.222;18.670;2022-12-29T10:53:34;11.38;;;9.35;;
67051;SDS011;53957;47.222;18.670;2022-12-29T10:57:48;16.05;;;10.57;;
67051;SDS011;53957;47.222;18.670;2022-12-29T11:00:34;9.05;;;8.15;;
67051;SDS011;53957;47.222;18.670;2022-12-29T11:03:46;13.18;;;8.93;;
67051;SDS011;53957;47.222;18.670;2022-12-29T11:06:50;21.55;;;14.30;;
67051;SDS011;53957;47.222;18.670;2022-12-29T11:09:54;14.87;;;11.18;;
67051;SDS011;53957;47.222;18.670;2022-12-29T11:13:02;24.83;;;15.63;;
67051;SDS011;53957;47.222;18.670;2022-12-29T11:16:07;26.30;;;17.15;;
67051;SDS011;53957;47.222;18.670;2022-12-29T11:19:23;20.33;;;11.70;;
67051;SDS011;53957;47.222;18.670;2022-12-29T11:22:48;24.98;;;14.70;;
67051;SDS011;53957;47.222;18.670;2022-12-29T11:29:41;32.13;;;17.65;;
67051;SDS011;53957;47.222;18.670;2022-12-29T11:32:52;31.08;;;15.60;;
67051;SDS011;53957;47.222;18.670;2022-12-29T11:39:48;8.15;;;7.32;;
67051;SDS011;53957;47.222;18.670;2022-12-29T11:43:21;24.83;;;16.12;;
67051;SDS011;53957;47.222;18.670;2022-12-29T11:46:29;22.25;;;14.30;;
67051;SDS011;53957;47.222;18.670;2022-12-29T11:49:35;26.80;;;17.87;;
67051;SDS011;53957;47.222;18.670;2022-12-29T11:52:38;25.25;;;15.13;;
67051;SDS011;53957;47.222;18.670;2022-12-29T12:06:10;23.80;;;14.10;;
67051;SDS011;53957;47.222;18.670;2022-12-29T12:09:19;27.87;;;15.57;;
67051;SDS011;53957;47.222;18.670;2022-12-29T12:15:57;11.38;;;8.05;;
67051;SDS011;53957;47.222;18.670;2022-12-29T12:22:40;28.33;;;15.38;;
67051;SDS011;53957;47.222;18.670;2022-12-29T12:29:39;24.08;;;16.27;;
67051;SDS011;53957;47.222;18.670;2022-12-29T12:43:50;20.37;;;13.20;;
67051;SDS011;53957;47.222;18.670;2022-12-29T12:50:52;17.48;;;10.88;;
67051;SDS011;53957;47.222;18.670;2022-12-29T12:58:06;31.12;;;16.70;;
67051;SDS011;53957;47.222;18.670;2022-12-29T13:07:59;12.40;;;9.55;;
67051;SDS011;53957;47.222;18.670;2022-12-29T13:11:43;18.33;;;13.00;;
67051;SDS011;53957;47.222;18.670;2022-12-29T13:18:55;27.95;;;16.90;;
67051;SDS011;53957;47.222;18.670;2022-12-29T13:39:26;21.85;;;14.98;;
67051;SDS011;53957;47.222;18.670;2022-12-29T13:42:34;27.98;;;18.55;;
67051;SDS011;53957;47.222;18.670;2022-12-29T13:45:38;24.92;;;16.27;;
67051;SDS011;53957;47.222;18.670;2022-12-29T13:51:54;35.17;;;17.30;;
67051;SDS011;53957;47.222;18.670;2022-12-29T13:55:02;30.33;;;19.33;;
67051;SDS011;53957;47.222;18.670;2022-12-29T13:58:34;25.27;;;17.98;;
67051;SDS011;53957;47.222;18.670;2022-12-29T14:08:33;27.80;;;16.30;;
67051;SDS011;53957;47.222;18.670;2022-12-29T14:11:58;28.98;;;17.00;;
67051;SDS011;53957;47.222;18.670;2022-12-29T14:55:43;25.17;;;17.15;;
67051;SDS011;53957;47.222;18.670;2022-12-29T14:58:53;29.17;;;17.37;;
67051;SDS011;53957;47.222;18.670;2022-12-29T15:02:12;28.90;;;18.00;;
67051;SDS011;53957;47.222;18.670;2022-12-29T15:05:26;24.33;;;16.60;;
67051;SDS011;53957;47.222;18.670;2022-12-29T15:12:47;45.75;;;26.83;;
67051;SDS011;53957;47.222;18.670;2022-12-29T15:15:56;29.70;;;17.50;;
67051;SDS011;53957;47.222;18.670;2022-12-29T15:19:01;27.77;;;16.60;;
67051;SDS011;53957;47.222;18.670;2022-12-29T15:22:11;27.05;;;17.15;;
67051;SDS011;53957;47.222;18.670;2022-12-29T15:25:16;34.30;;;20.45;;
67051;SDS011;53957;47.222;18.670;2022-12-29T15:28:23;21.85;;;15.80;;
67051;SDS011;53957;47.222;18.670;2022-12-29T15:31:28;36.30;;;16.70;;
67051;SDS011;53957;47.222;18.670;2022-12-29T15:34:34;23.90;;;17.02;;
67051;SDS011;53957;47.222;18.670;2022-12-29T15:37:39;23.35;;;16.12;;
67051;SDS011;53957;47.222;18.670;2022-12-29T15:40:44;25.52;;;16.42;;
67051;SDS011;53957;47.222;18.670;2022-12-29T15:47:02;23.48;;;15.02;;
67051;SDS011;53957;47.222;18.670;2022-12-29T15:50:33;21.10;;;14.82;;
67051;SDS011;53957;47.222;18.670;2022-12-29T15:53:48;25.77;;;17.02;;
67051;SDS011;53957;47.222;18.670;2022-12-29T15:56:53;29.23;;;18.20;;
67051;SDS011;53957;47.222;18.670;2022-12-29T16:00:01;25.02;;;16.10;;
67051;SDS011;53957;47.222;18.670;2022-12-29T16:03:13;27.30;;;17.52;;
67051;SDS011;53957;47.222;18.670;2022-12-29T16:06:28;33.28;;;18.95;;
67051;SDS011;53957;47.222;18.670;2022-12-29T16:09:32;31.48;;;18.62;;
67051;SDS011;53957;47.222;18.670;2022-12-29T16:12:45;33.50;;;18.33;;
67051;SDS011;53957;47.222;18.670;2022-12-29T16:15:50;34.10;;;18.55;;
67051;SDS011;53957;47.222;18.670;2022-12-29T16:19:28;33.65;;;17.80;;
67051;SDS011;53957;47.222;18.670;2022-12-29T16:22:57;25.10;;;15.90;;
67051;SDS011;53957;47.222;18.670;2022-12-29T16:26:10;28.80;;;18.00;;
67051;SDS011;53957;47.222;18.670;2022-12-29T16:29:20;24.25;;;16.23;;
67051;SDS011;53957;47.222;18.670;2022-12-29T16:32:46;22.27;;;16.02;;
67051;SDS011;53957;47.222;18.670;2022-12-29T16:35:50;27.80;;;17.23;;
67051;SDS011;53957;47.222;18.670;2022-12-29T16:46:27;25.48;;;15.38;;
67051;SDS011;53957;47.222;18.670;2022-12-29T16:49:53;25.20;;;17.30;;
67051;SDS011;53957;47.222;18.670;2022-12-29T16:52:56;23.60;;;16.80;;
67051;SDS011;53957;47.222;18.670;2022-12-29T16:56:05;23.60;;;17.00;;
67051;SDS011;53957;47.222;18.670;2022-12-29T16:59:28;27.13;;;17.13;;
67051;SDS011;53957;47.222;18.670;2022-12-29T17:02:33;24.67;;;16.00;;
67051;SDS011;53957;47.222;18.670;2022-12-29T17:05:47;21.73;;;16.60;;
67051;SDS011;53957;47.222;18.670;2022-12-29T17:09:32;26.80;;;17.00;;
67051;SDS011;53957;47.222;18.670;2022-12-29T17:12:35;24.90;;;17.65;;
67051;SDS011;53957;47.222;18.670;2022-12-29T17:15:43;25.88;;;16.02;;
67051;SDS011;53957;47.222;18.670;2022-12-29T17:18:56;23.77;;;16.08;;
67051;SDS011;53957;47.222;18.670;2022-12-29T17:22:00;24.37;;;16.20;;
67051;SDS011;53957;47.222;18.670;2022-12-29T17:25:03;35.33;;;22.05;;
67051;SDS011;53957;47.222;18.670;2022-12-29T17:28:23;36.72;;;20.02;;
67051;SDS011;53957;47.222;18.670;2022-12-29T17:31:28;29.87;;;19.55;;
67051;SDS011;53957;47.222;18.670;2022-12-29T17:34:40;26.85;;;17.12;;
67051;SDS011;53957;47.222;18.670;2022-12-29T17:37:43;28.35;;;17.20;;
67051;SDS011;53957;47.222;18.670;2022-12-29T17:40:47;29.77;;;18.85;;
67051;SDS011;53957;47.222;18.670;2022-12-29T17:43:52;28.58;;;18.58;;
67051;SDS011;53957;47.222;18.670;2022-12-29T17:47:00;29.17;;;19.52;;
67051;SDS011;53957;47.222;18.670;2022-12-29T17:50:13;36.88;;;21.02;;
67051;SDS011;53957;47.222;18.670;2022-12-29T17:53:39;34.72;;;20.15;;
67051;SDS011;53957;47.222;18.670;2022-12-29T17:56:42;40.10;;;20.92;;
67051;SDS011;53957;47.222;18.670;2022-12-29T17:59:45;29.98;;;18.98;;
67051;SDS011;53957;47.222;18.670;2022-12-29T18:02:48;22.77;;;16.45;;
67051;SDS011;53957;47.222;18.670;2022-12-29T18:05:57;35.95;;;18.75;;
67051;SDS011;53957;47.222;18.670;2022-12-29T18:09:01;32.45;;;19.08;;
67051;SDS011;53957;47.222;18.670;2022-12-29T18:12:05;30.95;;;18.27;;
67051;SDS011;53957;47.222;18.670;2022-12-29T18:15:26;25.08;;;16.50;;
67051;SDS011;53957;47.222;18.670;2022-12-29T18:18:33;28.12;;;18.20;;
67051;SDS011;53957;47.222;18.670;2022-12-29T18:21:58;28.40;;;19.15;;
67051;SDS011;53957;47.222;18.670;2022-12-29T18:28:37;33.85;;;19.58;;
67051;SDS011;53957;47.222;18.670;2022-12-29T18:31:41;33.55;;;19.83;;
67051;SDS011;53957;47.222;18.670;2022-12-29T18:34:52;28.50;;;17.73;;
67051;SDS011;53957;47.222;18.670;2022-12-29T18:37:58;24.95;;;16.58;;
67051;SDS011;53957;47.222;18.670;2022-12-29T18:41:04;28.65;;;18.98;;
67051;SDS011;53957;47.222;18.670;2022-12-29T18:44:10;26.12;;;17.83;;
67051;SDS011;53957;47.222;18.670;2022-12-29T18:47:14;31.87;;;17.73;;
67051;SDS011;53957;47.222;18.670;2022-12-29T18:50:18;23.77;;;17.10;;
67051;SDS011;53957;47.222;18.670;2022-12-29T18:53:22;21.10;;;14.73;;
67051;SDS011;53957;47.222;18.670;2022-12-29T18:56:33;23.15;;;14.07;;
67051;SDS011;53957;47.222;18.670;2022-12-29T18:59:36;17.25;;;12.27;;
67051;SDS011;53957;47.222;18.670;2022-12-29T19:02:50;21.55;;;16.05;;
67051;SDS011;53957;47.222;18.670;2022-12-29T19:06:13;17.75;;;12.13;;
67051;SDS011;53957;47.222;18.670;2022-12-29T19:09:17;27.35;;;16.65;;
67051;SDS011;53957;47.222;18.670;2022-12-29T19:12:20;36.08;;;19.55;;
67051;SDS011;53957;47.222;18.670;2022-12-29T19:15:31;16.98;;;13.40;;
67051;SDS011;53957;47.222;18.670;2022-12-29T19:18:37;28.33;;;15.02;;
67051;SDS011;53957;47.222;18.670;2022-12-29T19:22:18;25.88;;;16.58;;
67051;SDS011;53957;47.222;18.670;2022-12-29T19:25:41;27.20;;;15.98;;
67051;SDS011;53957;47.222;18.670;2022-12-29T19:28:46;26.90;;;17.35;;
67051;SDS011;53957;47.222;18.670;2022-12-29T19:31:51;20.77;;;15.52;;
67051;SDS011;53957;47.222;18.670;2022-12-29T19:34:54;26.05;;;15.77;;
67051;SDS011;53957;47.222;18.670;2022-12-29T19:38:18;27.20;;;17.00;;
67051;SDS011;53957;47.222;18.670;2022-12-29T19:41:30;27.55;;;17.92;;
67051;SDS011;53957;47.222;18.670;2022-12-29T19:44:33;35.35;;;23.05;;
67051;SDS011;53957;47.222;18.670;2022-12-29T19:48:17;29.63;;;17.25;;
67051;SDS011;53957;47.222;18.670;2022-12-29T19:51:21;25.02;;;16.48;;
67051;SDS011;53957;47.222;18.670;2022-12-29T19:54:24;26.25;;;16.48;;
67051;SDS011;53957;47.222;18.670;2022-12-29T19:57:28;24.75;;;15.25;;
67051;SDS011;53957;47.222;18.670;2022-12-29T20:00:51;26.05;;;15.40;;
67051;SDS011;53957;47.222;18.670;2022-12-29T20:03:59;25.42;;;17.20;;
67051;SDS011;53957;47.222;18.670;2022-12-29T20:07:24;30.37;;;17.87;;
67051;SDS011;53957;47.222;18.670;2022-12-29T20:10:29;24.17;;;16.85;;
67051;SDS011;53957;47.222;18.670;2022-12-29T20:13:32;27.05;;;17.73;;
67051;SDS011;53957;47.222;18.670;2022-12-29T20:16:36;24.70;;;17.98;;
67051;SDS011;53957;47.222;18.670;2022-12-29T20:19:59;24.52;;;15.43;;
67051;SDS011;53957;47.222;18.670;2022-12-29T20:23:11;25.55;;;16.48;;
67051;SDS011;53957;47.222;18.670;2022-12-29T20:26:15;23.65;;;17.00;;
67051;SDS011;53957;47.222;18.670;2022-12-29T20:29:21;23.20;;;14.55;;
67051;SDS011;53957;47.222;18.670;2022-12-29T20:32:24;22.75;;;17.23;;
67051;SDS011;53957;47.222;18.670;2022-12-29T20:35:28;25.88;;;16.83;;
67051;SDS011;53957;47.222;18.670;2022-12-29T20:38:37;30.60;;;18.70;;
67051;SDS011;53957;47.222;18.670;2022-12-29T20:41:43;25.37;;;17.08;;
67051;SDS011;53957;47.222;18.670;2022-12-29T20:44:47;30.08;;;16.92;;
67051;SDS011;53957;47.222;18.670;2022-12-29T20:47:52;28.55;;;17.67;;
67051;SDS011;53957;47.222;18.670;2022-12-29T20:50:56;29.05;;;17.33;;
67051;SDS011;53957;47.222;18.670;2022-12-29T20:54:06;31.45;;;17.42;;
67051;SDS011;53957;47.222;18.670;2022-12-29T20:57:09;24.98;;;16.45;;
67051;SDS011;53957;47.222;18.670;2022-12-29T21:00:13;26.35;;;15.88;;
67051;SDS011;53957;47.222;18.670;2022-12-29T21:03:23;33.58;;;17.77;;
67051;SDS011;53957;47.222;18.670;2022-12-29T21:06:27;23.20;;;16.48;;
67051;SDS011;53957;47.222;18.670;2022-12-29T21:09:30;29.85;;;18.37;;
67051;SDS011;53957;47.222;18.670;2022-12-29T21:12:53;28.02;;;20.75;;
67051;SDS011;53957;47.222;18.670;2022-12-29T21:15:58;37.10;;;20.58;;
67051;SDS011;53957;47.222;18.670;2022-12-29T21:19:04;33.65;;;19.48;;
67051;SDS011;53957;47.222;18.670;2022-12-29T21:22:07;33.55;;;20.25;;
67051;SDS011;53957;47.222;18.670;2022-12-29T21:25:10;31.75;;;18.60;;
67051;SDS011;53957;47.222;18.670;2022-12-29T21:28:35;24.30;;;16.95;;
67051;SDS011;53957;47.222;18.670;2022-12-29T21:31:49;35.13;;;17.15;;
67051;SDS011;53957;47.222;18.670;2022-12-29T21:34:52;29.50;;;17.45;;
67051;SDS011;53957;47.222;18.670;2022-12-29T21:38:01;28.05;;;15.90;;
67051;SDS011;53957;47.222;18.670;2022-12-29T21:41:08;34.30;;;18.27;;
67051;SDS011;53957;47.222;18.670;2022-12-29T21:44:14;25.98;;;17.48;;
67051;SDS011;53957;47.222;18.670;2022-12-29T21:47:35;22.90;;;15.90;;
67051;SDS011;53957;47.222;18.670;2022-12-29T21:51:09;24.08;;;15.68;;
67051;SDS011;53957;47.222;18.670;2022-12-29T21:54:40;29.98;;;16.73;;
67051;SDS011;53957;47.222;18.670;2022-12-29T21:58:01;25.98;;;16.75;;
67051;SDS011;53957;47.222;18.670;2022-12-29T22:01:24;27.87;;;17.42;;
67051;SDS011;53957;47.222;18.670;2022-12-29T22:04:46;25.52;;;17.05;;
67051;SDS011;53957;47.222;18.670;2022-12-29T22:08:09;25.85;;;16.87;;
67051;SDS011;53957;47.222;18.670;2022-12-29T22:11:31;29.08;;;17.83;;
67051;SDS011;53957;47.222;18.670;2022-12-29T22:14:54;29.48;;;17.77;;
67051;SDS011;53957;47.222;18.670;2022-12-29T22:17:57;36.20;;;18.73;;
67051;SDS011;53957;47.222;18.670;2022-12-29T22:21:07;25.27;;;17.85;;
67051;SDS011;53957;47.222;18.670;2022-12-29T22:24:17;31.95;;;18.60;;
67051;SDS011;53957;47.222;18.670;2022-12-29T22:27:19;28.55;;;18.90;;
67051;SDS011;53957;47.222;18.670;2022-12-29T22:30:27;27.02;;;16.48;;
67051;SDS011;53957;47.222;18.670;2022-12-29T22:33:31;27.87;;;17.35;;
67051;SDS011;53957;47.222;18.670;2022-12-29T22:36:35;22.55;;;15.45;;
67051;SDS011;53957;47.222;18.670;2022-12-29T22:39:38;32.22;;;18.23;;
67051;SDS011;53957;47.222;18.670;2022-12-29T22:42:41;23.02;;;17.20;;
67051;SDS011;53957;47.222;18.670;2022-12-29T22:45:48;26.70;;;17.20;;
67051;SDS011;53957;47.222;18.670;2022-12-29T22:49:08;19.65;;;14.65;;
67051;SDS011;53957;47.222;18.670;2022-12-29T22:52:12;24.00;;;16.48;;
67051;SDS011;53957;47.222;18.670;2022-12-29T22:55:16;22.90;;;15.65;;
67051;SDS011;53957;47.222;18.670;2022-12-29T22:58:28;23.62;;;16.55;;
67051;SDS011;53957;47.222;18.670;2022-12-29T23:01:51;23.73;;;15.00;;
67051;SDS011;53957;47.222;18.670;2022-12-29T23:04:54;24.45;;;15.48;;
67051;SDS011;53957;47.222;18.670;2022-12-29T23:08:23;27.83;;;16.00;;
67051;SDS011;53957;47.222;18.670;2022-12-29T23:11:30;27.60;;;15.90;;
67051;SDS011;53957;47.222;18.670;2022-12-29T23:14:53;27.17;;;15.27;;
67051;SDS011;53957;47.222;18.670;2022-12-29T23:17:56;29.25;;;17.98;;
67051;SDS011;53957;47.222;18.670;2022-12-29T23:20:59;28.35;;;18.65;;
67051;SDS011;53957;47.222;18.670;2022-12-29T23:24:02;27.52;;;18.17;;
67051;SDS011;53957;47.222;18.670;2022-12-29T23:27:06;32.38;;;17.35;;
67051;SDS011;53957;47.222;18.670;2022-12-29T23:30:10;29.92;;;17.27;;
67051;SDS011;53957;47.222;18.670;2022-12-29T23:33:14;23.20;;;16.50;;
67051;SDS011;53957;47.222;18.670;2022-12-29T23:36:37;28.67;;;18.23;;
67051;SDS011;53957;47.222;18.670;2022-12-29T23:39:41;26.83;;;16.75;;
67051;SDS011;53957;47.222;18.670;2022-12-29T23:43:04;28.10;;;16.85;;
67051;SDS011;53957;47.222;18.670;2022-12-29T23:46:07;31.73;;;15.70;;
67051;SDS011;53957;47.222;18.670;2022-12-29T23:49:13;31.37;;;16.83;;
67051;SDS011;53957;47.222;18.670;2022-12-29T23:52:17;22.83;;;16.10;;
67051;SDS011;53957;47.222;18.670;2022-12-29T23:55:24;28.15;;;16.73;;
67051;SDS011;53957;47.222;18.670;2022-12-29T23:58:28;24.80;;;16.83;;
